Time,TemperatureF,DewpointF,PressureIn,WindDirection,WindDirectionDegrees,WindSpeedMPH,WindSpeedGustMPH,Humidity,HourlyPrecipIn,Conditions,Clouds,dailyrainin,SoftwareType,DateUTC
2013-12-22 00:08:00,27.9,22.0,29.83,NW,325,4.0,-999.0,78,-99.99,,,0.00,weatherlink.com 1.10,2013-12-22 06:08:00,
2013-12-22 00:22:00,27.8,22.0,29.84,NW,326,1.0,-999.0,78,-99.99,,,0.00,weatherlink.com 1.10,2013-12-22 06:22:00,
2013-12-22 00:37:00,27.7,21.0,29.84,North,360,0.0,-999.0,77,-99.99,,,0.00,weatherlink.com 1.10,2013-12-22 06:37:00,
2013-12-22 00:51:00,27.6,21.0,29.85,NNE,27,2.0,-999.0,77,-99.99,,,0.00,weatherlink.com 1.10,2013-12-22 06:51:00,
2013-12-22 01:05:00,27.5,21.0,29.86,North,5,1.0,-999.0,77,-99.99,,,0.00,weatherlink.com 1.10,2013-12-22 07:05:00,
2013-12-22 01:19:00,27.4,21.0,29.86,NNW,348,0.0,-999.0,77,-99.99,,,0.00,weatherlink.com 1.10,2013-12-22 07:19:00,
2013-12-22 01:33:00,27.2,21.0,29.87,NNW,331,0.0,-999.0,77,-99.99,,,0.00,weatherlink.com 1.10,2013-12-22 07:33:00,
2013-12-22 01:47:00,27.0,21.0,29.87,North,5,0.0,-999.0,77,-99.99,,,0.00,weatherlink.com 1.10,2013-12-22 07:47:00,
2013-12-22 02:01:00,26.9,21.0,29.87,NW,322,0.0,-999.0,77,-99.99,,,0.00,weatherlink.com 1.10,2013-12-22 08:01:00,
2013-12-22 02:15:00,26.7,20.0,29.87,NNW,329,2.0,-999.0,77,-99.99,,,0.00,weatherlink.com 1.10,2013-12-22 08:15:00,
2013-12-22 02:29:00,26.6,20.0,29.87,NW,320,3.0,-999.0,76,-99.99,,,0.00,weatherlink.com 1.10,2013-12-22 08:29:00,
2013-12-22 02:43:00,26.5,20.0,29.88,North,355,0.0,-999.0,77,-99.99,,,0.00,weatherlink.com 1.10,2013-12-22 08:43:00,
2013-12-22 02:57:00,26.3,20.0,29.88,NNE,27,0.0,-999.0,77,-99.99,,,0.00,weatherlink.com 1.10,2013-12-22 08:57:00,
2013-12-22 03:11:00,26.3,20.0,29.89,NNW,339,2.0,-999.0,77,-99.99,,,0.00,weatherlink.com 1.10,2013-12-22 09:11:00,
2013-12-22 03:25:00,26.1,20.0,29.88,NW,311,3.0,-999.0,77,-99.99,,,0.00,weatherlink.com 1.10,2013-12-22 09:25:00,
2013-12-22 03:40:00,25.9,20.0,29.88,North,355,4.0,-999.0,77,-99.99,,,0.00,weatherlink.com 1.10,2013-12-22 09:40:00,
2013-12-22 03:54:00,25.8,20.0,29.89,NNE,33,0.0,-999.0,77,-99.99,,,0.00,weatherlink.com 1.10,2013-12-22 09:54:00,
2013-12-22 04:08:00,25.7,19.0,29.89,NNW,338,3.0,-999.0,77,-99.99,,,0.00,weatherlink.com 1.10,2013-12-22 10:08:00,
2013-12-22 04:23:00,25.6,20.0,29.90,NW,322,3.0,-999.0,78,-99.99,,,0.00,weatherlink.com 1.10,2013-12-22 10:23:00,
2013-12-22 04:37:00,25.5,20.0,29.91,NW,313,0.0,-999.0,78,-99.99,,,0.00,weatherlink.com 1.10,2013-12-22 10:37:00,
2013-12-22 04:51:00,25.4,19.0,29.92,NNE,15,0.0,-999.0,78,-99.99,,,0.00,weatherlink.com 1.10,2013-12-22 10:51:00,
2013-12-22 05:06:00,25.3,19.0,29.92,North,355,2.0,-999.0,78,-99.99,,,0.00,weatherlink.com 1.10,2013-12-22 11:06:00,
2013-12-22 05:20:00,25.1,20.0,29.93,NNW,344,6.0,-999.0,79,-99.99,,,0.00,weatherlink.com 1.10,2013-12-22 11:20:00,
2013-12-22 05:34:00,24.6,19.0,29.93,NNW,348,4.0,-999.0,80,-99.99,,,0.00,weatherlink.com 1.10,2013-12-22 11:34:00,
2013-12-22 05:49:00,24.2,19.0,29.94,North,355,10.0,-999.0,80,-99.99,,,0.00,weatherlink.com 1.10,2013-12-22 11:49:00,
2013-12-22 06:03:00,23.9,19.0,29.95,NNW,339,7.0,-999.0,81,-99.99,,,0.00,weatherlink.com 1.10,2013-12-22 12:03:00,
2013-12-22 06:17:00,23.7,19.0,29.95,WNW,284,1.0,-999.0,81,-99.99,,,0.00,weatherlink.com 1.10,2013-12-22 12:17:00,
2013-12-22 06:31:00,23.4,18.0,29.97,NW,314,0.0,-999.0,81,-99.99,,,0.00,weatherlink.com 1.10,2013-12-22 12:31:00,
2013-12-22 06:45:00,23.0,20.0,29.97,NNW,331,0.0,-999.0,89,-99.99,,,0.00,weatherlink.com 1.10,2013-12-22 12:45:00,
2013-12-22 06:59:00,22.8,18.0,29.97,NW,325,1.0,-999.0,82,-99.99,,,0.00,weatherlink.com 1.10,2013-12-22 12:59:00,
2013-12-22 07:13:00,22.5,18.0,29.99,North,355,9.0,-999.0,83,-99.99,,,0.00,weatherlink.com 1.10,2013-12-22 13:13:00,
2013-12-22 07:27:00,22.0,18.0,30.00,NNW,334,6.0,-999.0,84,-99.99,,,0.00,weatherlink.com 1.10,2013-12-22 13:27:00,
2013-12-22 07:41:00,21.9,18.0,30.01,NNW,344,2.0,-999.0,84,-99.99,,,0.00,weatherlink.com 1.10,2013-12-22 13:41:00,
2013-12-22 07:55:00,21.8,18.0,30.02,NNE,13,12.0,-999.0,84,-99.99,,,0.00,weatherlink.com 1.10,2013-12-22 13:55:00,
2013-12-22 08:09:00,21.2,17.0,30.03,NNW,336,5.0,-999.0,85,-99.99,,,0.00,weatherlink.com 1.10,2013-12-22 14:09:00,
2013-12-22 08:24:00,21.6,20.0,30.05,WNW,288,5.0,-999.0,92,-99.99,,,0.00,weatherlink.com 1.10,2013-12-22 14:24:00,
2013-12-22 08:38:00,21.5,18.0,30.05,North,9,6.0,-999.0,85,-99.99,,,0.00,weatherlink.com 1.10,2013-12-22 14:38:00,
2013-12-22 08:52:00,19.7,16.0,30.05,WNW,292,4.0,-999.0,86,-99.99,,,0.00,weatherlink.com 1.10,2013-12-22 14:52:00,
2013-12-22 09:07:00,19.0,16.0,30.05,WNW,284,2.0,-999.0,86,-99.99,,,0.00,weatherlink.com 1.10,2013-12-22 15:07:00,
2013-12-22 09:21:00,19.4,16.0,30.07,NNW,330,4.0,-999.0,86,-99.99,,,0.00,weatherlink.com 1.10,2013-12-22 15:21:00,
2013-12-22 09:35:00,19.7,16.0,30.08,WNW,285,0.0,-999.0,86,-99.99,,,0.00,weatherlink.com 1.10,2013-12-22 15:35:00,
2013-12-22 09:50:00,19.7,16.0,30.09,WNW,289,3.0,-999.0,86,-99.99,,,0.00,weatherlink.com 1.10,2013-12-22 15:50:00,
2013-12-22 10:04:00,19.1,16.0,30.09,West,280,2.0,-999.0,86,-99.99,,,0.00,weatherlink.com 1.10,2013-12-22 16:04:00,
2013-12-22 10:18:00,19.0,16.0,30.10,West,275,5.0,-999.0,86,-99.99,,,0.00,weatherlink.com 1.10,2013-12-22 16:18:00,
2013-12-22 10:32:00,19.0,16.0,30.10,NNW,331,4.0,-999.0,86,-99.99,,,0.00,weatherlink.com 1.10,2013-12-22 16:32:00,
2013-12-22 10:46:00,19.4,18.0,30.10,NW,305,5.0,-999.0,94,-99.99,,,0.00,weatherlink.com 1.10,2013-12-22 16:46:00,
2013-12-22 11:00:00,19.2,16.0,30.11,NNW,334,9.0,-999.0,86,-99.99,,,0.00,weatherlink.com 1.10,2013-12-22 17:00:00,
2013-12-22 11:14:00,18.2,14.0,30.12,NW,309,5.0,-999.0,85,-99.99,,,0.00,weatherlink.com 1.10,2013-12-22 17:14:00,
2013-12-22 11:28:00,17.6,14.0,30.13,WSW,255,0.0,-999.0,85,-99.99,,,0.00,weatherlink.com 1.10,2013-12-22 17:28:00,
2013-12-22 11:42:00,17.4,14.0,30.13,NNW,346,6.0,-999.0,85,-99.99,,,0.00,weatherlink.com 1.10,2013-12-22 17:42:00,
2013-12-22 11:57:00,17.4,14.0,30.14,WSW,246,3.0,-999.0,85,-99.99,,,0.00,weatherlink.com 1.10,2013-12-22 17:57:00,
2013-12-22 12:11:00,17.4,13.0,30.14,WNW,288,2.0,-999.0,84,-99.99,,,0.00,weatherlink.com 1.10,2013-12-22 18:11:00,
2013-12-22 12:25:00,17.4,13.0,30.14,NNW,344,3.0,-999.0,84,-99.99,,,0.00,weatherlink.com 1.10,2013-12-22 18:25:00,
2013-12-22 12:39:00,17.7,13.0,30.14,NW,321,4.0,-999.0,82,-99.99,,,0.00,weatherlink.com 1.10,2013-12-22 18:39:00,
2013-12-22 12:53:00,18.1,14.0,30.14,NW,309,1.0,-999.0,83,-99.99,,,0.00,weatherlink.com 1.10,2013-12-22 18:53:00,
2013-12-22 13:07:00,17.8,13.0,30.14,NW,305,6.0,-999.0,81,-99.99,,,0.00,weatherlink.com 1.10,2013-12-22 19:07:00,
2013-12-22 13:22:00,17.3,12.0,30.15,NW,311,0.0,-999.0,81,-99.99,,,0.00,weatherlink.com 1.10,2013-12-22 19:22:00,
2013-12-22 13:36:00,17.0,12.0,30.15,WNW,298,5.0,-999.0,82,-99.99,,,0.00,weatherlink.com 1.10,2013-12-22 19:36:00,
2013-12-22 13:50:00,17.0,12.0,30.15,WNW,286,1.0,-999.0,81,-99.99,,,0.00,weatherlink.com 1.10,2013-12-22 19:50:00,
2013-12-22 14:04:00,17.1,12.0,30.16,NW,315,3.0,-999.0,81,-99.99,,,0.00,weatherlink.com 1.10,2013-12-22 20:04:00,
2013-12-22 14:18:00,17.2,12.0,30.16,NNW,339,3.0,-999.0,81,-99.99,,,0.00,weatherlink.com 1.10,2013-12-22 20:18:00,
2013-12-22 14:33:00,17.3,12.0,30.17,NW,314,6.0,-999.0,81,-99.99,,,0.00,weatherlink.com 1.10,2013-12-22 20:33:00,
2013-12-22 14:46:00,17.2,12.0,30.18,WNW,294,3.0,-999.0,81,-99.99,,,0.00,weatherlink.com 1.10,2013-12-22 20:46:00,
2013-12-22 15:00:00,17.2,12.0,30.19,West,279,5.0,-999.0,80,-99.99,,,0.00,weatherlink.com 1.10,2013-12-22 21:00:00,
2013-12-22 15:14:00,17.5,13.0,30.19,WNW,291,2.0,-999.0,81,-99.99,,,0.00,weatherlink.com 1.10,2013-12-22 21:14:00,
2013-12-22 15:28:00,17.7,13.0,30.19,WNW,296,5.0,-999.0,81,-99.99,,,0.00,weatherlink.com 1.10,2013-12-22 21:28:00,
2013-12-22 15:42:00,18.0,13.0,30.20,WNW,292,5.0,-999.0,81,-99.99,,,0.00,weatherlink.com 1.10,2013-12-22 21:42:00,
2013-12-22 15:56:00,18.4,14.0,30.20,NNW,342,2.0,-999.0,81,-99.99,,,0.00,weatherlink.com 1.10,2013-12-22 21:56:00,
2013-12-22 16:10:00,18.5,14.0,30.21,WNW,292,9.0,-999.0,81,-99.99,,,0.00,weatherlink.com 1.10,2013-12-22 22:10:00,
2013-12-22 16:25:00,18.5,13.0,30.22,WNW,300,9.0,-999.0,80,-99.99,,,0.00,weatherlink.com 1.10,2013-12-22 22:25:00,
2013-12-22 16:38:00,18.6,13.0,30.22,WNW,293,4.0,-999.0,80,-99.99,,,0.00,weatherlink.com 1.10,2013-12-22 22:38:00,
2013-12-22 16:52:00,18.3,13.0,30.23,West,269,2.0,-999.0,80,-99.99,,,0.00,weatherlink.com 1.10,2013-12-22 22:52:00,
2013-12-22 17:06:00,18.1,13.0,30.23,West,281,3.0,-999.0,79,-99.99,,,0.00,weatherlink.com 1.10,2013-12-22 23:06:00,
2013-12-22 17:21:00,18.0,13.0,30.24,WNW,301,4.0,-999.0,79,-99.99,,,0.00,weatherlink.com 1.10,2013-12-22 23:21:00,
2013-12-22 17:35:00,17.9,12.0,30.25,WNW,289,0.0,-999.0,79,-99.99,,,0.00,weatherlink.com 1.10,2013-12-22 23:35:00,
2013-12-22 17:49:00,18.0,13.0,30.25,WNW,287,2.0,-999.0,79,-99.99,,,0.00,weatherlink.com 1.10,2013-12-22 23:49:00,
2013-12-22 18:04:00,17.9,12.0,30.26,West,281,10.0,-999.0,79,-99.99,,,0.00,weatherlink.com 1.10,2013-12-23 00:04:00,
2013-12-22 18:18:00,17.8,12.0,30.27,WNW,288,1.0,-999.0,79,-99.99,,,0.00,weatherlink.com 1.10,2013-12-23 00:18:00,
2013-12-22 18:32:00,17.5,12.0,30.28,NNW,348,4.0,-999.0,79,-99.99,,,0.00,weatherlink.com 1.10,2013-12-23 00:32:00,
2013-12-22 18:47:00,17.0,12.0,30.29,WSW,250,0.0,-999.0,79,-99.99,,,0.00,weatherlink.com 1.10,2013-12-23 00:47:00,
2013-12-22 19:01:00,16.5,11.0,30.29,WNW,303,0.0,-999.0,79,-99.99,,,0.00,weatherlink.com 1.10,2013-12-23 01:01:00,
2013-12-22 19:15:00,16.1,11.0,30.30,West,270,3.0,-999.0,79,-99.99,,,0.00,weatherlink.com 1.10,2013-12-23 01:15:00,
2013-12-22 19:30:00,15.5,10.0,30.30,NW,304,0.0,-999.0,80,-99.99,,,0.00,weatherlink.com 1.10,2013-12-23 01:30:00,
2013-12-22 19:44:00,14.5,9.0,30.32,West,259,9.0,-999.0,79,-99.99,,,0.00,weatherlink.com 1.10,2013-12-23 01:44:00,
2013-12-22 19:58:00,13.6,8.0,30.32,WNW,296,4.0,-999.0,79,-99.99,,,0.00,weatherlink.com 1.10,2013-12-23 01:58:00,
2013-12-22 20:12:00,12.8,8.0,30.33,WNW,299,5.0,-999.0,79,-99.99,,,0.00,weatherlink.com 1.10,2013-12-23 02:12:00,
2013-12-22 20:26:00,11.6,6.0,30.33,NW,304,2.0,-999.0,79,-99.99,,,0.00,weatherlink.com 1.10,2013-12-23 02:26:00,
2013-12-22 20:41:00,10.8,6.0,30.34,WNW,290,2.0,-999.0,80,-99.99,,,0.00,weatherlink.com 1.10,2013-12-23 02:41:00,
2013-12-22 20:55:00,9.9,5.0,30.35,WNW,294,2.0,-999.0,80,-99.99,,,0.00,weatherlink.com 1.10,2013-12-23 02:55:00,
2013-12-22 21:09:00,9.5,5.0,30.36,West,277,0.0,-999.0,80,-99.99,,,0.00,weatherlink.com 1.10,2013-12-23 03:09:00,
2013-12-22 21:23:00,9.1,4.0,30.37,WNW,288,3.0,-999.0,81,-99.99,,,0.00,weatherlink.com 1.10,2013-12-23 03:23:00,
2013-12-22 21:37:00,8.7,4.0,30.38,WNW,294,3.0,-999.0,81,-99.99,,,0.00,weatherlink.com 1.10,2013-12-23 03:37:00,
2013-12-22 21:51:00,8.3,4.0,30.38,West,265,5.0,-999.0,81,-99.99,,,0.00,weatherlink.com 1.10,2013-12-23 03:51:00,
2013-12-22 22:05:00,8.0,3.0,30.39,WNW,291,2.0,-999.0,80,-99.99,,,0.00,weatherlink.com 1.10,2013-12-23 04:05:00,
2013-12-22 22:20:00,7.7,3.0,30.40,WNW,292,3.0,-999.0,80,-99.99,,,0.00,weatherlink.com 1.10,2013-12-23 04:20:00,
2013-12-22 22:34:00,7.4,3.0,30.40,West,279,5.0,-999.0,80,-99.99,,,0.00,weatherlink.com 1.10,2013-12-23 04:34:00,
2013-12-22 22:48:00,7.3,2.0,30.41,WNW,298,1.0,-999.0,80,-99.99,,,0.00,weatherlink.com 1.10,2013-12-23 04:48:00,
2013-12-22 23:03:00,7.0,2.0,30.42,West,277,5.0,-999.0,80,-99.99,,,0.00,weatherlink.com 1.10,2013-12-23 05:03:00,
2013-12-22 23:17:00,6.7,2.0,30.43,WNW,289,1.0,-999.0,80,-99.99,,,0.00,weatherlink.com 1.10,2013-12-23 05:17:00,
2013-12-22 23:31:00,6.3,1.0,30.43,WNW,290,0.0,-999.0,80,-99.99,,,0.00,weatherlink.com 1.10,2013-12-23 05:31:00,
2013-12-22 23:46:00,6.0,1.0,30.44,WNW,296,2.0,-999.0,80,-99.99,,,0.00,weatherlink.com 1.10,2013-12-23 05:46:00,